N752OC KBIH-KPCU
Flight info
| Callsign | N752OC |
|---|---|
| Flight time | N/A |
| Altitude | 12000 |
| Route | BNAKI T259 SAAGO |
| Aircraft | PA28/L-VGDW/C |
Departure
| Time | 2026-05-04 04:33 |
|---|---|
| Airport | Eastern Sierra Regional Airport (KBIH) |
Arrival
| Time | N/A |
|---|---|
| Airport | KPCU |
| Time | Latitude | Longitude | Altitude | Speed | Heading |
|---|---|---|---|---|---|
| 2026-05-04 04:21 | 37.37098 | -118.36427 | 4142 ft | 0 kts | 44° |
| 2026-05-04 04:22 | 37.37097 | -118.36427 | 4142 ft | 0 kts | 43° |
| 2026-05-04 04:29 | 37.37100 | -118.36424 | 4142 ft | 0 kts | 46° |
| 2026-05-04 04:29 | 37.37103 | -118.36419 | 4142 ft | 2 kts | 47° |
| 2026-05-04 04:29 | 37.37129 | -118.36428 | 4142 ft | 5 kts | 335° |
| 2026-05-04 04:29 | 37.37171 | -118.36407 | 4142 ft | 9 kts | 39° |
| 2026-05-04 04:30 | 37.37175 | -118.36401 | 4142 ft | 0 kts | 43° |
| 2026-05-04 04:30 | 37.37185 | -118.36389 | 4142 ft | 5 kts | 38° |
| 2026-05-04 04:30 | 37.37217 | -118.36362 | 4142 ft | 5 kts | 79° |
| 2026-05-04 04:30 | 37.37202 | -118.36334 | 4141 ft | 0 kts | 134° |
| 2026-05-04 04:31 | 37.37189 | -118.36317 | 4141 ft | 18 kts | 135° |
| 2026-05-04 04:31 | 37.36962 | -118.36039 | 4138 ft | 67 kts | 133° |
| 2026-05-04 04:32 | 37.36595 | -118.35570 | 4217 ft | 74 kts | 127° |
| 2026-05-04 04:32 | 37.36212 | -118.35087 | 4367 ft | 81 kts | 135° |
| 2026-05-04 04:32 | 37.35771 | -118.34636 | 4525 ft | 87 kts | 142° |
| 2026-05-04 04:32 | 37.35250 | -118.34347 | 4715 ft | 85 kts | 177° |
| 2026-05-04 04:33 | 37.34705 | -118.34596 | 4906 ft | 84 kts | 223° |
| 2026-05-04 04:33 | 37.34462 | -118.35219 | 5111 ft | 80 kts | 264° |
| 2026-05-04 04:33 | 37.34595 | -118.35870 | 5307 ft | 78 kts | 302° |
| 2026-05-04 04:33 | 37.34999 | -118.36327 | 5516 ft | 77 kts | 321° |
| 2026-05-04 04:34 | 37.35427 | -118.36719 | 5702 ft | 79 kts | 324° |
| 2026-05-04 04:34 | 37.35886 | -118.37082 | 5925 ft | 76 kts | 328° |
| 2026-05-04 04:34 | 37.36303 | -118.37510 | 6101 ft | 78 kts | 314° |
| 2026-05-04 04:34 | 37.36695 | -118.37974 | 6315 ft | 76 kts | 316° |
| 2026-05-04 04:35 | 37.37095 | -118.38412 | 6489 ft | 78 kts | 319° |
| 2026-05-04 04:35 | 37.37519 | -118.38808 | 6671 ft | 78 kts | 338° |
| 2026-05-04 04:35 | 37.38073 | -118.38843 | 6885 ft | 74 kts | 356° |
| 2026-05-04 04:35 | 37.38593 | -118.38904 | 7006 ft | 82 kts | 354° |
| 2026-05-04 04:36 | 37.39122 | -118.38958 | 7258 ft | 73 kts | 355° |
| 2026-05-04 04:36 | 37.39438 | -118.39398 | 7396 ft | 79 kts | 274° |
| 2026-05-04 04:36 | 37.39480 | -118.40095 | 7555 ft | 81 kts | 276° |
| 2026-05-04 04:36 | 37.39506 | -118.40788 | 7738 ft | 79 kts | 278° |
| 2026-05-04 04:37 | 37.40165 | -118.42664 | 8252 ft | 77 kts | 288° |
| 2026-05-04 04:37 | 37.40186 | -118.43374 | 8378 ft | 82 kts | 287° |
| 2026-05-04 04:38 | 37.40497 | -118.43945 | 8550 ft | 77 kts | 310° |
| 2026-05-04 04:38 | 37.40741 | -118.44539 | 8697 ft | 80 kts | 297° |
| 2026-05-04 04:38 | 37.40955 | -118.45184 | 8880 ft | 77 kts | 295° |
| 2026-05-04 04:38 | 37.41193 | -118.45809 | 9003 ft | 81 kts | 301° |
| 2026-05-04 04:39 | 37.41449 | -118.46421 | 9157 ft | 81 kts | 302° |
| 2026-05-04 04:39 | 37.41687 | -118.47057 | 9327 ft | 80 kts | 288° |
| 2026-05-04 04:39 | 37.41866 | -118.47755 | 9415 ft | 85 kts | 301° |
| 2026-05-04 04:39 | 37.42133 | -118.48345 | 9602 ft | 80 kts | 303° |
| 2026-05-04 04:40 | 37.42425 | -118.48970 | 9731 ft | 81 kts | 308° |
| 2026-05-04 04:40 | 37.42779 | -118.49526 | 9861 ft | 82 kts | 317° |
| 2026-05-04 04:40 | 37.43178 | -118.50023 | 10008 ft | 83 kts | 307° |
| 2026-05-04 04:40 | 37.43395 | -118.50715 | 10175 ft | 82 kts | 294° |
| 2026-05-04 04:41 | 37.43595 | -118.51392 | 10284 ft | 86 kts | 296° |
| 2026-05-04 04:41 | 37.43819 | -118.52072 | 10462 ft | 82 kts | 298° |
| 2026-05-04 04:41 | 37.44057 | -118.52741 | 10592 ft | 83 kts | 298° |
| 2026-05-04 04:41 | 37.44301 | -118.53397 | 10729 ft | 84 kts | 300° |
| 2026-05-04 04:42 | 37.44548 | -118.54044 | 10886 ft | 81 kts | 301° |
| 2026-05-04 04:42 | 37.44807 | -118.54703 | 11014 ft | 83 kts | 301° |
| 2026-05-04 04:42 | 37.45059 | -118.55343 | 11155 ft | 83 kts | 302° |
| 2026-05-04 04:42 | 37.45316 | -118.55990 | 11304 ft | 82 kts | 302° |
| 2026-05-04 04:43 | 37.45573 | -118.56632 | 11434 ft | 83 kts | 302° |
| 2026-05-04 04:43 | 37.45828 | -118.57268 | 11580 ft | 82 kts | 301° |
| 2026-05-04 04:43 | 37.46086 | -118.57912 | 11722 ft | 81 kts | 302° |
| 2026-05-04 04:43 | 37.46339 | -118.58546 | 11852 ft | 82 kts | 302° |
| 2026-05-04 04:44 | 37.46596 | -118.59186 | 12009 ft | 80 kts | 302° |
| 2026-05-04 04:44 | 37.46853 | -118.59819 | 12121 ft | 82 kts | 302° |
| 2026-05-04 04:44 | 37.47106 | -118.60452 | 12260 ft | 82 kts | 303° |
| 2026-05-04 04:44 | 37.47558 | -118.61039 | 12160 ft | 102 kts | 319° |
| 2026-05-04 04:45 | 37.47892 | -118.61800 | 12303 ft | 101 kts | 301° |
| 2026-05-04 04:45 | 37.48259 | -118.62628 | 12281 ft | 113 kts | 305° |
| 2026-05-04 04:45 | 37.48638 | -118.63504 | 12355 ft | 113 kts | 303° |
| 2026-05-04 04:47 | 37.50700 | -118.69308 | 12561 ft | 123 kts | 301° |
| 2026-05-04 04:47 | 37.51064 | -118.70251 | 12673 ft | 119 kts | 300° |
| 2026-05-04 04:47 | 37.51447 | -118.71214 | 12669 ft | 124 kts | 301° |
| 2026-05-04 04:47 | 37.51821 | -118.72159 | 12753 ft | 120 kts | 300° |
| 2026-05-04 04:48 | 37.52200 | -118.73108 | 12770 ft | 123 kts | 301° |